Time;durP1;ratioP1;P1;durP2;ratioP2;P2;SDS_P1;SDS_P2;PMS_P1;PMS_P2;Temp;Humidity;BMP_temperature;BMP_pressure;BME280_temperature;BME280_humidity;BME280_pressure;Samples;Min_cycle;Max_cycle;Signal;HPM_P1;HPM_P2
2021/12/27 00:02:18;;;;;;;14.73;4.27;;;-2.50;97.30;;;;;;5043503;28;20176;-82
2021/12/27 00:04:48;;;;;;;8.60;5.10;;;-2.50;97.30;;;;;;5041475;28;20457;-83
2021/12/27 00:07:26;;;;;;;8.77;4.30;;;-2.50;97.30;;;;;;5043497;28;20422;-83
2021/12/27 00:09:57;;;;;;;13.20;4.23;;;-2.50;97.30;;;;;;5053291;28;20489;-83
2021/12/27 00:12:28;;;;;;;12.33;5.07;;;-2.40;97.30;;;;;;5050683;28;20476;-83
2021/12/27 00:14:54;;;;;;;11.83;4.03;;;-2.40;97.30;;;;;;5052847;28;20418;-83
2021/12/27 00:17:19;;;;;;;12.60;4.37;;;-2.40;97.30;;;;;;5053184;28;20429;-83
2021/12/27 00:26:29;;;;;;;13.10;4.80;;;-2.40;97.30;;;;;;5056759;28;20476;-83
2021/12/27 00:28:57;;;;;;;7.60;4.20;;;-2.40;97.30;;;;;;5052190;28;20430;-83
2021/12/27 00:31:26;;;;;;;8.63;4.17;;;-2.30;97.30;;;;;;5052983;28;20681;-83
2021/12/27 00:33:52;;;;;;;10.83;4.17;;;-2.30;97.30;;;;;;5054434;28;20483;-83
2021/12/27 00:36:18;;;;;;;6.40;3.87;;;-2.30;97.30;;;;;;5052964;28;20876;-83
2021/12/27 00:38:47;;;;;;;9.10;4.20;;;-2.30;97.30;;;;;;5052730;28;20186;-83
2021/12/27 00:41:13;;;;;;;10.13;5.10;;;-2.30;97.30;;;;;;5053408;28;20218;-83
2021/12/27 00:43:39;;;;;;;11.23;5.00;;;-2.30;97.30;;;;;;5051825;28;20438;-82
2021/12/27 00:46:04;;;;;;;8.77;4.70;;;-2.30;97.30;;;;;;5054255;28;20466;-81
2021/12/27 00:48:30;;;;;;;10.13;4.87;;;-2.30;97.30;;;;;;5056076;28;20183;-84
2021/12/27 00:50:58;;;;;;;8.10;4.23;;;-2.30;97.30;;;;;;5050843;28;20215;-83
2021/12/27 00:53:24;;;;;;;9.57;3.90;;;-2.30;97.30;;;;;;5044363;28;20198;-82
2021/12/27 00:55:50;;;;;;;11.03;4.80;;;-2.30;97.30;;;;;;5049176;28;20447;-81
2021/12/27 00:58:15;;;;;;;6.83;4.27;;;-2.30;97.30;;;;;;5043121;28;20412;-84
2021/12/27 01:00:41;;;;;;;13.80;5.40;;;-2.30;97.30;;;;;;5043379;28;20203;-84
2021/12/27 01:03:08;;;;;;;10.13;4.20;;;-2.30;97.30;;;;;;5048142;28;20558;-84
2021/12/27 01:05:34;;;;;;;10.27;4.20;;;-2.30;97.30;;;;;;5039099;28;20464;-79
2021/12/27 01:07:59;;;;;;;15.50;4.33;;;-2.30;97.30;;;;;;5045403;28;20520;-85
2021/12/27 01:10:59;;;;;;;10.33;4.33;;;-2.30;97.30;;;;;;5055172;28;20208;-83
2021/12/27 01:13:58;;;;;;;9.30;4.07;;;-2.20;97.30;;;;;;5069785;28;20448;-84
2021/12/27 01:16:12;;;;;;;12.40;3.93;;;-2.20;97.30;;;;;;5065677;28;20425;-84
2021/12/27 01:18:47;;;;;;;9.43;4.50;;;-2.20;97.30;;;;;;5045814;28;20464;-84
2021/12/27 01:21:16;;;;;;;15.37;5.87;;;-2.20;97.30;;;;;;5044436;28;20466;-82
2021/12/27 01:23:41;;;;;;;12.13;5.30;;;-2.20;97.30;;;;;;5049773;28;20448;-82
2021/12/27 01:26:07;;;;;;;13.73;4.40;;;-2.10;97.30;;;;;;5044954;28;20521;-83
2021/12/27 01:28:33;;;;;;;13.27;4.60;;;-2.10;97.30;;;;;;5050412;28;20243;-83
2021/12/27 01:30:59;;;;;;;9.67;4.97;;;-2.10;97.30;;;;;;5041205;28;20207;-84
2021/12/27 01:33:25;;;;;;;13.80;5.53;;;-2.10;97.30;;;;;;5047944;28;20413;-84
2021/12/27 01:35:52;;;;;;;11.93;5.83;;;-2.10;97.30;;;;;;5043213;28;20956;-83
2021/12/27 01:38:18;;;;;;;7.07;4.33;;;-2.10;97.30;;;;;;5052270;28;20559;-84
2021/12/27 01:40:47;;;;;;;16.67;6.07;;;-2.00;97.30;;;;;;5047913;28;20473;-83
2021/12/27 01:43:21;;;;;;;12.87;4.87;;;-2.00;97.30;;;;;;5070475;28;20249;-81
2021/12/27 01:45:54;;;;;;;9.20;4.47;;;-2.00;97.30;;;;;;5047117;28;20436;-83
2021/12/27 01:48:23;;;;;;;9.23;4.67;;;-2.00;97.30;;;;;;5067816;28;20420;-82
2021/12/27 01:50:51;;;;;;;8.30;5.30;;;-2.00;97.30;;;;;;5060617;28;20468;-84
2021/12/27 01:53:18;;;;;;;12.30;5.70;;;-2.00;97.30;;;;;;5056313;28;20426;-84
2021/12/27 01:55:44;;;;;;;14.37;5.50;;;-1.90;97.30;;;;;;5045662;28;20439;-82
2021/12/27 01:58:10;;;;;;;10.57;4.37;;;-1.90;97.30;;;;;;5057846;28;20413;-83
2021/12/27 02:00:41;;;;;;;16.53;5.87;;;-1.90;97.30;;;;;;5061401;28;20989;-83
2021/12/27 02:03:07;;;;;;;8.90;4.53;;;-1.90;97.30;;;;;;5056007;28;20192;-82
2021/12/27 02:05:32;;;;;;;9.20;5.33;;;-1.90;97.30;;;;;;5061018;28;20440;-83
2021/12/27 02:07:58;;;;;;;11.40;5.67;;;-1.90;97.30;;;;;;5060813;28;20278;-83
2021/12/27 02:10:24;;;;;;;15.20;4.90;;;-1.90;97.30;;;;;;5060554;28;20301;-82
2021/12/27 02:12:51;;;;;;;12.53;4.60;;;-1.90;97.30;;;;;;5050736;28;20692;-82
2021/12/27 02:15:17;;;;;;;8.63;4.47;;;-1.80;97.30;;;;;;5061094;28;20175;-82
2021/12/27 02:17:43;;;;;;;12.53;5.10;;;-1.80;97.30;;;;;;5061471;28;20451;-82
2021/12/27 02:20:18;;;;;;;12.97;5.73;;;-1.80;97.30;;;;;;5059981;28;20453;-83
2021/12/27 02:22:45;;;;;;;10.80;4.90;;;-1.80;97.30;;;;;;5052296;28;20440;-83
2021/12/27 02:25:12;;;;;;;15.00;4.17;;;-1.80;97.30;;;;;;5058175;28;20421;-84
2021/12/27 02:27:38;;;;;;;13.70;4.97;;;-1.70;97.30;;;;;;5057803;28;20421;-82
2021/12/27 02:30:06;;;;;;;9.30;5.57;;;-1.70;97.30;;;;;;5056530;28;20502;-83
2021/12/27 02:32:32;;;;;;;12.47;5.57;;;-1.70;97.30;;;;;;5055145;28;20425;-83
2021/12/27 02:34:57;;;;;;;10.97;5.13;;;-1.70;97.30;;;;;;5058063;28;20656;-83
2021/12/27 02:37:23;;;;;;;11.23;5.10;;;-1.70;97.30;;;;;;5039208;28;20458;-84
2021/12/27 02:39:49;;;;;;;13.20;5.10;;;-1.70;97.30;;;;;;5052375;28;20191;-82
2021/12/27 02:42:20;;;;;;;15.00;5.50;;;-1.70;97.30;;;;;;5057610;28;20194;-83
2021/12/27 02:44:46;;;;;;;11.20;5.13;;;-1.60;97.30;;;;;;5057849;28;20183;-83
2021/12/27 02:47:15;;;;;;;12.90;6.03;;;-1.60;97.30;;;;;;5055913;28;20436;-83
2021/12/27 02:49:41;;;;;;;13.50;5.87;;;-1.60;97.30;;;;;;5058564;28;20172;-83
2021/12/27 02:52:07;;;;;;;9.43;5.30;;;-1.60;97.30;;;;;;5058710;28;20863;-82
2021/12/27 02:54:33;;;;;;;16.83;7.27;;;-1.60;97.30;;;;;;5060338;28;20294;-82
2021/12/27 02:56:58;;;;;;;12.10;6.10;;;-1.50;97.30;;;;;;5060019;28;20429;-82
2021/12/27 02:59:24;;;;;;;11.60;5.03;;;-1.50;97.30;;;;;;5049543;28;20219;-82
2021/12/27 03:01:59;;;;;;;10.67;5.60;;;-1.50;97.30;;;;;;5054944;28;20664;-82
2021/12/27 03:04:38;;;;;;;20.37;6.37;;;-1.50;97.30;;;;;;5055980;28;20193;-82
2021/12/27 03:07:07;;;;;;;12.80;5.80;;;-1.50;97.30;;;;;;5047858;28;21062;-82
2021/12/27 03:09:38;;;;;;;12.60;5.70;;;-1.50;97.30;;;;;;5045525;28;20433;-81
2021/12/27 03:12:09;;;;;;;16.27;6.20;;;-1.50;97.30;;;;;;5045275;28;20478;-84
2021/12/27 03:14:35;;;;;;;15.33;6.00;;;-1.40;97.30;;;;;;5048545;28;20418;-84
2021/12/27 03:17:00;;;;;;;16.83;6.87;;;-1.40;97.30;;;;;;5064377;28;20414;-83
2021/12/27 03:19:26;;;;;;;10.50;5.80;;;-1.40;97.30;;;;;;5064946;28;20187;-83
2021/12/27 03:21:51;;;;;;;11.20;5.57;;;-1.40;97.30;;;;;;5065667;28;20199;-82
2021/12/27 03:24:17;;;;;;;14.70;5.07;;;-1.40;97.30;;;;;;5060604;28;20217;-82
2021/12/27 03:26:43;;;;;;;13.40;6.40;;;-1.40;97.30;;;;;;5060875;28;20182;-82
2021/12/27 03:29:08;;;;;;;19.10;6.27;;;-1.40;97.30;;;;;;5052955;28;20266;-82
2021/12/27 03:31:37;;;;;;;20.20;5.90;;;-1.30;97.30;;;;;;5052396;28;20210;-82
2021/12/27 03:34:08;;;;;;;14.00;6.70;;;-1.30;97.30;;;;;;5060951;28;20187;-82
2021/12/27 03:36:39;;;;;;;14.60;5.80;;;-1.30;97.30;;;;;;5053128;28;20426;-82
2021/12/27 03:39:09;;;;;;;11.77;5.30;;;-1.30;97.30;;;;;;5048407;28;20436;-78
2021/12/27 03:41:37;;;;;;;14.97;5.40;;;-1.20;97.30;;;;;;5055180;28;20434;-85
2021/12/27 03:44:07;;;;;;;9.47;5.47;;;-1.20;97.30;;;;;;5060519;28;20457;-83
2021/12/27 03:46:36;;;;;;;16.47;6.20;;;-1.20;97.30;;;;;;5061465;28;20815;-82
2021/12/27 03:49:02;;;;;;;13.37;5.50;;;-1.20;97.30;;;;;;5053978;28;20430;-84
2021/12/27 03:51:28;;;;;;;12.33;6.53;;;-1.10;97.30;;;;;;5075885;28;21017;-85
2021/12/27 03:53:56;;;;;;;15.63;5.40;;;-1.10;97.30;;;;;;5057494;28;20430;-86
2021/12/27 03:56:23;;;;;;;13.30;6.03;;;-1.00;97.30;;;;;;5058842;28;20454;-83
2021/12/27 04:01:21;;;;;;;13.27;6.17;;;-1.00;97.30;;;;;;5077218;28;20460;-84
2021/12/27 04:03:53;;;;;;;9.70;5.67;;;-1.00;97.30;;;;;;5058197;28;20429;-84
2021/12/27 04:06:25;;;;;;;11.47;5.97;;;-1.00;97.30;;;;;;5058201;28;20504;-84
2021/12/27 04:08:54;;;;;;;16.77;7.47;;;-1.00;97.30;;;;;;5058339;28;20425;-82
2021/12/27 04:11:19;;;;;;;18.23;7.00;;;-1.00;97.30;;;;;;5057959;28;20488;-84
2021/12/27 04:13:46;;;;;;;15.47;5.87;;;-0.90;97.30;;;;;;5059406;28;20421;-84
2021/12/27 04:16:12;;;;;;;9.90;5.53;;;-0.90;97.30;;;;;;5059455;28;20187;-84
2021/12/27 04:18:38;;;;;;;18.73;6.93;;;-0.90;97.30;;;;;;5057721;28;20424;-84
2021/12/27 04:21:07;;;;;;;10.53;6.00;;;-0.90;97.30;;;;;;5052160;28;20473;-86
2021/12/27 04:23:38;;;;;;;11.53;4.80;;;-0.90;97.30;;;;;;5053648;28;20450;-82
2021/12/27 04:26:08;;;;;;;13.10;6.43;;;-0.80;97.30;;;;;;5069097;28;20954;-85
2021/12/27 04:28:39;;;;;;;14.87;7.17;;;-0.80;97.30;;;;;;5049132;28;20452;-83
2021/12/27 04:31:09;;;;;;;13.40;6.20;;;-0.80;97.30;;;;;;5063004;28;20465;-84
2021/12/27 04:33:38;;;;;;;13.93;6.20;;;-0.80;97.30;;;;;;5051583;28;20954;-85
2021/12/27 04:36:04;;;;;;;10.30;5.40;;;-0.80;97.30;;;;;;5041725;28;20414;-83
2021/12/27 04:38:30;;;;;;;16.83;6.50;;;-0.70;97.30;;;;;;5046994;28;20796;-84
2021/12/27 04:40:56;;;;;;;13.73;6.67;;;-0.70;97.30;;;;;;5050555;28;20484;-83
2021/12/27 04:43:27;;;;;;;21.50;6.63;;;-0.70;97.30;;;;;;5041170;28;20233;-83
2021/12/27 04:45:57;;;;;;;12.50;6.40;;;-0.70;97.30;;;;;;5047171;28;20520;-86
2021/12/27 04:48:27;;;;;;;11.77;6.20;;;-0.70;97.30;;;;;;5057005;28;20563;-83
2021/12/27 04:50:57;;;;;;;14.30;6.77;;;-0.70;97.30;;;;;;5054684;28;20479;-83
2021/12/27 04:53:26;;;;;;;17.57;7.27;;;-0.70;97.30;;;;;;5058965;28;20938;-83
2021/12/27 04:55:52;;;;;;;17.13;6.50;;;-0.60;97.30;;;;;;5057956;28;20435;-85
2021/12/27 04:58:21;;;;;;;16.47;6.77;;;-0.60;97.30;;;;;;5052510;28;20418;-83
2021/12/27 05:00:48;;;;;;;13.90;5.60;;;-0.60;97.30;;;;;;5049539;28;20211;-83
2021/12/27 05:03:14;;;;;;;16.00;6.70;;;-0.50;97.30;;;;;;5056609;28;20428;-83
2021/12/27 05:05:43;;;;;;;14.40;6.17;;;-0.50;97.30;;;;;;5055270;28;20452;-80
2021/12/27 05:08:10;;;;;;;13.63;7.10;;;-0.50;97.30;;;;;;5056719;28;20430;-80
2021/12/27 05:10:36;;;;;;;13.50;6.40;;;-0.50;97.30;;;;;;5038416;28;20485;-81
2021/12/27 05:13:02;;;;;;;14.63;6.40;;;-0.50;97.30;;;;;;5051984;28;20516;-84
2021/12/27 05:15:28;;;;;;;15.53;6.60;;;-0.40;97.30;;;;;;5053085;28;20421;-84
2021/12/27 05:17:54;;;;;;;19.27;6.67;;;-0.40;97.30;;;;;;5042803;28;20496;-83
2021/12/27 05:20:20;;;;;;;18.53;7.20;;;-0.40;97.30;;;;;;5036006;28;20206;-84
2021/12/27 05:22:45;;;;;;;13.53;6.97;;;-0.40;97.30;;;;;;5036336;28;20190;-84
2021/12/27 05:25:12;;;;;;;15.63;6.17;;;-0.40;97.30;;;;;;5053350;28;20786;-84
2021/12/27 05:27:39;;;;;;;19.33;6.90;;;-0.30;97.30;;;;;;5070363;28;20513;-84
2021/12/27 05:30:05;;;;;;;14.60;6.50;;;-0.30;97.30;;;;;;5052662;28;20552;-84
2021/12/27 05:32:31;;;;;;;11.53;6.50;;;-0.30;97.30;;;;;;5053316;28;20425;-84
2021/12/27 05:34:57;;;;;;;15.87;6.50;;;-0.30;97.30;;;;;;5052507;28;20409;-78
2021/12/27 05:37:22;;;;;;;18.70;7.47;;;-0.30;97.30;;;;;;5051314;28;20421;-80
2021/12/27 05:39:48;;;;;;;19.17;6.80;;;-0.20;97.30;;;;;;5045459;28;20664;-79
2021/12/27 05:42:14;;;;;;;15.23;6.03;;;-0.20;97.30;;;;;;5050020;28;20736;-80
2021/12/27 05:44:40;;;;;;;12.40;6.07;;;-0.20;97.30;;;;;;5052085;28;20513;-83
2021/12/27 05:47:05;;;;;;;16.17;7.07;;;-0.20;97.30;;;;;;5070989;28;20250;-84
2021/12/27 05:49:31;;;;;;;19.93;7.77;;;-0.20;97.30;;;;;;5053649;28;20233;-79
2021/12/27 05:51:57;;;;;;;13.77;5.90;;;-0.10;97.30;;;;;;5052254;28;20285;-80
2021/12/27 05:54:22;;;;;;;14.13;5.63;;;-0.10;97.30;;;;;;5056443;28;20189;-79
2021/12/27 05:56:49;;;;;;;14.00;6.13;;;-0.10;97.30;;;;;;5056735;28;20207;-79
2021/12/27 05:59:19;;;;;;;17.57;7.27;;;-0.10;97.30;;;;;;5052631;28;20316;-78
2021/12/27 06:01:45;;;;;;;13.40;6.10;;;0.00;97.30;;;;;;5069791;28;20521;-79
2021/12/27 06:04:11;;;;;;;21.20;8.20;;;0.00;97.30;;;;;;5052225;28;20907;-79
2021/12/27 06:06:37;;;;;;;21.80;8.47;;;0.00;97.30;;;;;;5052139;28;20440;-79
2021/12/27 06:09:06;;;;;;;17.17;6.90;;;0.00;97.30;;;;;;5068483;28;20263;-79
2021/12/27 06:11:32;;;;;;;16.27;7.40;;;0.00;97.30;;;;;;5049483;28;20233;-80
2021/12/27 06:13:58;;;;;;;16.77;7.03;;;0.00;97.30;;;;;;5041130;28;20485;-82
2021/12/27 06:16:27;;;;;;;17.63;6.63;;;0.00;97.30;;;;;;5043186;28;20863;-83
2021/12/27 06:18:54;;;;;;;16.10;6.63;;;0.10;97.30;;;;;;5043447;28;20416;-83
2021/12/27 06:21:20;;;;;;;14.53;7.10;;;0.10;97.30;;;;;;5040559;28;20449;-83
2021/12/27 06:23:49;;;;;;;16.40;7.57;;;0.10;97.30;;;;;;5041834;28;20419;-83
2021/12/27 06:26:17;;;;;;;12.80;7.47;;;0.10;97.30;;;;;;5041762;28;20179;-84
2021/12/27 06:28:44;;;;;;;16.77;6.97;;;0.10;97.30;;;;;;5044054;28;20422;-83
2021/12/27 06:31:10;;;;;;;16.10;7.63;;;0.10;97.30;;;;;;5044656;28;20477;-83
2021/12/27 06:33:40;;;;;;;14.13;6.40;;;0.10;97.30;;;;;;5046245;28;20414;-84
2021/12/27 06:36:22;;;;;;;15.30;7.10;;;0.20;97.30;;;;;;5063385;28;20437;-83
2021/12/27 06:38:48;;;;;;;13.87;7.07;;;0.20;97.30;;;;;;5047540;28;20433;-84
2021/12/27 06:41:17;;;;;;;13.17;6.67;;;0.20;97.30;;;;;;5065731;28;20752;-83
2021/12/27 06:43:43;;;;;;;18.30;7.40;;;0.10;97.30;;;;;;5046712;28;20452;-83
2021/12/27 06:46:09;;;;;;;14.60;6.70;;;0.20;97.30;;;;;;5047087;28;20417;-84
2021/12/27 06:48:35;;;;;;;17.10;7.60;;;0.20;97.30;;;;;;5059163;28;20210;-85
2021/12/27 06:51:00;;;;;;;16.47;6.50;;;0.20;97.30;;;;;;5066287;28;20218;-83
2021/12/27 06:53:30;;;;;;;17.43;6.37;;;0.20;97.30;;;;;;5065788;28;20481;-82
2021/12/27 06:55:56;;;;;;;15.17;6.77;;;0.20;97.30;;;;;;5067112;28;20169;-82
2021/12/27 06:58:22;;;;;;;17.00;6.70;;;0.30;97.30;;;;;;5066067;28;20416;-83
2021/12/27 07:00:48;;;;;;;21.77;6.90;;;0.30;97.30;;;;;;5060355;28;20437;-83
2021/12/27 07:03:14;;;;;;;21.47;6.57;;;0.30;97.30;;;;;;5056770;28;20487;-82
2021/12/27 07:05:41;;;;;;;20.17;6.93;;;0.30;97.30;;;;;;5062729;28;20210;-82
2021/12/27 07:08:07;;;;;;;21.07;8.10;;;0.30;97.30;;;;;;5051939;28;20430;-85
2021/12/27 07:10:33;;;;;;;16.27;7.37;;;0.30;97.30;;;;;;5036632;28;20839;-84
2021/12/27 07:12:59;;;;;;;19.43;8.53;;;0.30;97.30;;;;;;5038835;28;20426;-80
2021/12/27 07:15:25;;;;;;;17.10;8.30;;;0.40;97.30;;;;;;5042929;28;20312;-79
2021/12/27 07:17:51;;;;;;;24.33;8.90;;;0.40;97.30;;;;;;5058660;28;20479;-81
2021/12/27 07:20:16;;;;;;;18.47;7.40;;;0.40;97.30;;;;;;5057869;28;20465;-80
2021/12/27 07:22:42;;;;;;;17.33;7.53;;;0.40;97.30;;;;;;5064903;28;20194;-83
2021/12/27 07:25:08;;;;;;;22.40;9.93;;;0.40;97.30;;;;;;5061677;28;20501;-83
2021/12/27 07:27:38;;;;;;;19.23;9.53;;;0.40;97.30;;;;;;5058773;28;20183;-84
2021/12/27 07:30:08;;;;;;;17.10;7.47;;;0.50;97.30;;;;;;5039563;28;20500;-84
2021/12/27 07:32:37;;;;;;;12.93;6.20;;;0.50;97.30;;;;;;5048005;28;20437;-84
2021/12/27 07:35:05;;;;;;;16.37;7.20;;;0.50;97.30;;;;;;5073043;28;20937;-84
2021/12/27 07:37:31;;;;;;;17.50;7.33;;;0.50;97.30;;;;;;5072932;28;20409;-84
2021/12/27 07:39:58;;;;;;;20.43;8.60;;;0.60;97.30;;;;;;5052289;28;20432;-84
2021/12/27 07:42:29;;;;;;;17.40;7.63;;;0.50;97.30;;;;;;5054369;28;20441;-84
2021/12/27 07:44:58;;;;;;;16.30;6.80;;;0.60;97.30;;;;;;5062732;28;20636;-85
2021/12/27 07:47:29;;;;;;;22.77;7.73;;;0.60;97.30;;;;;;5054372;28;20443;-84
2021/12/27 07:49:58;;;;;;;25.10;9.20;;;0.60;97.30;;;;;;5053282;28;20461;-84
2021/12/27 07:52:48;;;;;;;19.37;7.20;;;0.60;97.30;;;;;;5053139;28;20848;-85
2021/12/27 07:55:18;;;;;;;16.80;7.17;;;0.60;97.30;;;;;;5053306;28;20428;-85
2021/12/27 07:57:48;;;;;;;18.67;7.70;;;0.70;97.30;;;;;;5053217;28;20425;-85
2021/12/27 08:00:19;;;;;;;20.90;8.43;;;0.70;97.30;;;;;;5050610;28;20848;-85
2021/12/27 08:02:48;;;;;;;26.63;9.63;;;0.70;97.30;;;;;;5054187;28;20433;-84
2021/12/27 08:05:14;;;;;;;14.13;7.53;;;0.70;97.30;;;;;;5052886;28;20424;-85
2021/12/27 08:07:42;;;;;;;17.80;7.43;;;0.80;97.30;;;;;;5045857;28;20816;-85
2021/12/27 08:10:09;;;;;;;22.10;8.30;;;0.80;97.30;;;;;;5041899;28;20260;-85
2021/12/27 08:12:35;;;;;;;19.60;7.87;;;0.80;97.30;;;;;;5049684;28;21009;-85
2021/12/27 08:15:01;;;;;;;34.50;8.17;;;0.80;97.30;;;;;;5069648;28;20429;-85
2021/12/27 08:17:26;;;;;;;18.27;7.60;;;0.90;97.30;;;;;;5044606;28;20431;-85
2021/12/27 08:19:53;;;;;;;22.40;7.40;;;0.90;97.30;;;;;;5067746;28;20429;-85
2021/12/27 08:22:19;;;;;;;24.57;7.93;;;0.90;97.30;;;;;;5048960;28;20270;-85
2021/12/27 08:24:44;;;;;;;18.77;8.03;;;1.00;97.30;;;;;;5044608;28;20505;-85
2021/12/27 08:27:10;;;;;;;15.10;8.57;;;1.00;97.30;;;;;;5061419;28;20181;-85
2021/12/27 08:29:36;;;;;;;19.47;7.10;;;1.00;97.30;;;;;;5041841;28;20680;-85
2021/12/27 08:32:02;;;;;;;18.83;6.93;;;1.00;97.30;;;;;;5031292;28;20286;-85
2021/12/27 08:34:29;;;;;;;25.60;7.80;;;1.00;97.30;;;;;;5050288;28;20171;-85
2021/12/27 08:36:55;;;;;;;18.30;7.80;;;1.10;97.30;;;;;;5055195;28;20441;-85
2021/12/27 08:39:21;;;;;;;16.13;7.33;;;1.10;97.30;;;;;;5049086;28;20448;-85
2021/12/27 08:41:46;;;;;;;22.80;8.43;;;1.10;97.30;;;;;;5067541;28;20459;-85
2021/12/27 08:44:12;;;;;;;20.70;8.00;;;1.10;97.30;;;;;;5060766;28;20186;-84
2021/12/27 08:46:38;;;;;;;16.90;7.50;;;1.20;97.30;;;;;;5068443;28;20175;-84
2021/12/27 08:49:04;;;;;;;20.17;7.80;;;1.20;97.30;;;;;;5087091;28;20193;-84
2021/12/27 08:51:31;;;;;;;19.20;8.47;;;1.30;97.30;;;;;;5068399;28;20211;-85
2021/12/27 08:53:57;;;;;;;24.03;8.20;;;1.30;97.30;;;;;;5052703;28;20996;-84
2021/12/27 08:56:23;;;;;;;21.60;7.23;;;1.30;97.30;;;;;;5068755;28;20413;-83
2021/12/27 08:58:49;;;;;;;25.07;9.70;;;1.30;97.30;;;;;;5069587;28;20247;-84
2021/12/27 09:01:14;;;;;;;17.47;7.00;;;1.40;97.30;;;;;;5069213;28;20445;-83
2021/12/27 09:03:40;;;;;;;18.97;7.67;;;1.40;97.30;;;;;;5068256;28;20425;-84
2021/12/27 09:06:06;;;;;;;18.87;8.00;;;1.40;97.30;;;;;;5068915;28;20425;-86
2021/12/27 09:08:35;;;;;;;19.70;7.80;;;1.40;97.30;;;;;;5067936;28;20202;-84
2021/12/27 09:11:01;;;;;;;29.73;8.93;;;1.40;97.30;;;;;;5067920;28;20493;-84
2021/12/27 09:13:31;;;;;;;18.53;8.03;;;1.40;97.30;;;;;;5068699;28;20471;-84
2021/12/27 09:16:01;;;;;;;17.53;7.70;;;1.40;97.30;;;;;;5067491;28;20410;-86
2021/12/27 09:18:28;;;;;;;23.87;7.83;;;1.50;97.30;;;;;;5060365;28;20442;-84
2021/12/27 09:20:54;;;;;;;17.53;6.90;;;1.50;97.30;;;;;;5050190;28;20434;-85
2021/12/27 09:23:19;;;;;;;28.20;9.00;;;1.50;97.30;;;;;;5044556;28;20440;-86
2021/12/27 09:25:47;;;;;;;16.37;7.03;;;1.50;97.30;;;;;;5043182;28;20422;-86
2021/12/27 09:28:14;;;;;;;21.40;8.50;;;1.60;97.30;;;;;;5056881;28;20179;-85
2021/12/27 09:30:40;;;;;;;20.43;7.53;;;1.60;97.30;;;;;;5057473;28;20556;-82
2021/12/27 09:33:06;;;;;;;21.33;6.90;;;1.70;97.30;;;;;;5056038;28;20440;-83
2021/12/27 09:35:32;;;;;;;19.60;7.67;;;1.70;97.30;;;;;;5055493;28;20907;-83
2021/12/27 09:37:58;;;;;;;20.20;7.77;;;1.70;97.30;;;;;;5035610;28;20823;-84
2021/12/27 09:40:24;;;;;;;23.93;8.63;;;1.70;97.30;;;;;;5033660;28;20438;-84
2021/12/27 09:42:52;;;;;;;20.00;8.20;;;1.70;97.30;;;;;;5033619;28;20258;-84
2021/12/27 09:45:18;;;;;;;16.07;6.60;;;1.70;97.30;;;;;;5033375;28;20960;-84
2021/12/27 09:47:47;;;;;;;19.13;8.33;;;1.70;97.30;;;;;;5033358;28;20985;-84
2021/12/27 09:50:18;;;;;;;23.87;7.47;;;1.80;97.30;;;;;;5033248;28;20985;-84
2021/12/27 09:52:45;;;;;;;23.63;8.60;;;1.80;97.30;;;;;;5033881;28;20970;-84
2021/12/27 09:55:11;;;;;;;21.60;7.57;;;1.80;97.30;;;;;;5032657;28;20790;-83
2021/12/27 09:57:37;;;;;;;25.33;9.60;;;1.80;97.30;;;;;;5032782;28;20422;-88
2021/12/27 10:00:05;;;;;;;20.80;8.50;;;1.80;97.30;;;;;;5033140;28;20561;-85
2021/12/27 10:02:34;;;;;;;13.23;7.10;;;1.80;97.30;;;;;;5032709;28;20237;-84
2021/12/27 10:04:59;;;;;;;21.57;8.20;;;1.80;97.30;;;;;;5036525;28;20480;-85
2021/12/27 10:07:27;;;;;;;17.90;8.03;;;1.80;97.30;;;;;;5043812;28;20489;-85
2021/12/27 10:09:59;;;;;;;21.40;8.40;;;1.80;97.30;;;;;;5043443;28;20207;-85
2021/12/27 10:12:26;;;;;;;21.43;8.00;;;1.90;97.30;;;;;;5052473;28;20600;-84
2021/12/27 10:14:57;;;;;;;20.20;7.17;;;1.90;97.30;;;;;;5052819;28;20816;-84
2021/12/27 10:17:23;;;;;;;17.73;8.50;;;2.00;97.30;;;;;;5052837;28;20508;-87
2021/12/27 10:19:50;;;;;;;16.97;7.90;;;2.00;97.30;;;;;;5052637;28;20417;-86
2021/12/27 10:22:16;;;;;;;19.57;7.63;;;2.00;97.30;;;;;;5052968;28;20496;-87
2021/12/27 10:24:42;;;;;;;19.63;7.97;;;2.10;97.30;;;;;;5053075;28;20417;-86
2021/12/27 10:27:08;;;;;;;20.83;8.60;;;2.10;97.30;;;;;;5053282;28;20414;-85
2021/12/27 10:29:36;;;;;;;22.13;9.07;;;2.10;97.30;;;;;;5054316;28;20810;-85
2021/12/27 10:32:09;;;;;;;25.80;7.73;;;2.10;97.30;;;;;;5035715;28;20628;-85
2021/12/27 10:34:36;;;;;;;20.00;7.40;;;2.20;97.30;;;;;;5035744;28;20854;-85
2021/12/27 10:37:07;;;;;;;18.47;8.77;;;2.20;97.30;;;;;;5052319;28;20422;-85
2021/12/27 10:39:42;;;;;;;21.97;8.43;;;2.20;97.30;;;;;;5052730;28;20479;-86
2021/12/27 10:42:09;;;;;;;21.67;8.00;;;2.20;97.30;;;;;;5052445;28;20530;-86
2021/12/27 10:44:36;;;;;;;19.00;7.63;;;2.20;97.30;;;;;;5052315;28;20418;-84
2021/12/27 10:47:03;;;;;;;17.80;7.67;;;2.20;97.30;;;;;;5053043;28;20425;-84
2021/12/27 10:49:44;;;;;;;17.40;7.87;;;2.30;97.30;;;;;;5036660;28;20419;-84
2021/12/27 10:52:10;;;;;;;19.23;8.60;;;2.40;97.30;;;;;;5052706;28;20477;-83
2021/12/27 10:54:37;;;;;;;22.03;7.67;;;2.40;97.30;;;;;;5053094;28;20858;-84
2021/12/27 10:57:03;;;;;;;18.27;7.80;;;2.50;97.30;;;;;;5036317;28;20664;-83
2021/12/27 10:59:29;;;;;;;24.00;8.50;;;2.50;97.30;;;;;;5052863;28;20417;-83
2021/12/27 11:01:55;;;;;;;20.30;8.77;;;2.50;97.30;;;;;;5054217;28;20468;-83
2021/12/27 11:04:21;;;;;;;14.10;6.50;;;2.50;97.30;;;;;;5053077;28;20438;-83
2021/12/27 11:06:49;;;;;;;17.70;7.57;;;2.50;97.30;;;;;;5036669;28;20175;-84
2021/12/27 11:09:15;;;;;;;17.20;7.87;;;2.50;97.30;;;;;;5046427;28;20262;-84
2021/12/27 11:11:41;;;;;;;14.10;7.53;;;2.60;97.30;;;;;;5055679;28;20480;-84
2021/12/27 11:14:07;;;;;;;21.83;7.83;;;2.60;97.30;;;;;;5055942;28;20401;-84
2021/12/27 11:16:32;;;;;;;22.23;7.20;;;2.60;97.30;;;;;;5056561;28;20796;-84
2021/12/27 11:18:59;;;;;;;18.03;7.70;;;2.70;97.30;;;;;;5056316;28;20409;-88
2021/12/27 11:21:32;;;;;;;18.03;7.27;;;2.70;97.30;;;;;;5074305;28;20687;-89
2021/12/27 11:24:00;;;;;;;22.70;9.60;;;2.70;97.30;;;;;;5056203;28;20491;-89
2021/12/27 11:26:32;;;;;;;16.40;7.60;;;2.70;97.30;;;;;;5056991;28;20428;-86
2021/12/27 11:29:14;;;;;;;19.93;7.63;;;2.70;97.30;;;;;;5074174;28;20934;-86
2021/12/27 11:31:41;;;;;;;14.80;7.17;;;2.70;97.30;;;;;;5055835;28;20465;-85
2021/12/27 11:34:12;;;;;;;20.83;8.37;;;2.80;97.30;;;;;;5062220;28;20421;-86
2021/12/27 11:36:42;;;;;;;18.07;7.17;;;2.80;97.30;;;;;;5058710;28;20438;-85
2021/12/27 11:39:31;;;;;;;22.33;8.20;;;2.90;97.30;;;;;;5061064;28;20405;-85
2021/12/27 11:42:07;;;;;;;16.53;7.17;;;3.00;97.30;;;;;;5060279;28;20447;-85
2021/12/27 11:44:49;;;;;;;15.53;7.10;;;3.00;97.30;;;;;;5061245;28;20436;-85
2021/12/27 11:47:30;;;;;;;18.63;7.30;;;3.00;97.30;;;;;;5059776;28;20463;-87
2021/12/27 11:49:59;;;;;;;16.83;7.30;;;3.00;97.30;;;;;;5055433;28;20449;-88
2021/12/27 11:52:32;;;;;;;10.67;6.97;;;3.00;97.30;;;;;;5073239;28;20402;-86
2021/12/27 11:55:21;;;;;;;13.80;6.67;;;3.00;97.30;;;;;;5072570;28;20416;-86
2021/12/27 11:57:49;;;;;;;15.07;6.70;;;3.00;97.30;;;;;;5055235;28;20405;-88
2021/12/27 12:00:18;;;;;;;20.33;7.20;;;3.00;97.30;;;;;;5054991;28;20433;-89
2021/12/27 12:02:45;;;;;;;15.87;7.20;;;3.00;97.30;;;;;;5055483;28;20996;-88
2021/12/27 12:05:54;;;;;;;20.83;7.13;;;3.00;97.30;;;;;;5055207;28;20410;-88
2021/12/27 12:08:38;;;;;;;13.67;7.37;;;3.10;97.30;;;;;;5047195;28;20410;-89
2021/12/27 12:11:10;;;;;;;15.90;6.50;;;3.20;97.30;;;;;;5054430;28;20534;-86
2021/12/27 12:13:41;;;;;;;13.47;6.60;;;3.20;97.30;;;;;;5072065;28;20401;-87
2021/12/27 12:16:20;;;;;;;18.93;8.13;;;3.20;97.30;;;;;;5055002;28;20405;-86
2021/12/27 12:19:10;;;;;;;18.70;7.90;;;3.20;97.30;;;;;;5054688;28;20783;-86
2021/12/27 12:21:44;;;;;;;19.80;7.50;;;3.20;97.30;;;;;;5056221;28;20443;-87
2021/12/27 12:24:12;;;;;;;15.23;6.70;;;3.20;97.30;;;;;;5056842;28;20423;-85
2021/12/27 12:27:07;;;;;;;16.40;7.07;;;3.20;97.30;;;;;;5054621;28;20786;-86
2021/12/27 12:30:00;;;;;;;20.97;7.00;;;3.20;97.30;;;;;;5054773;28;20429;-85
2021/12/27 12:32:30;;;;;;;19.30;7.27;;;3.20;97.30;;;;;;5046078;28;20414;-86
2021/12/27 12:35:12;;;;;;;15.10;5.90;;;3.20;97.30;;;;;;5053264;28;20445;-86
2021/12/27 12:37:39;;;;;;;15.13;6.53;;;3.20;97.30;;;;;;5053420;28;20808;-86
2021/12/27 12:40:20;;;;;;;14.90;6.80;;;3.20;97.30;;;;;;5053330;28;21018;-85
2021/12/27 12:42:49;;;;;;;11.27;5.83;;;3.20;97.30;;;;;;5053512;28;20489;-85
2021/12/27 12:45:39;;;;;;;12.07;6.43;;;3.20;97.30;;;;;;5053547;28;20425;-85
2021/12/27 12:48:09;;;;;;;15.07;6.50;;;3.20;97.30;;;;;;5053970;28;20438;-85
2021/12/27 12:50:41;;;;;;;15.30;5.80;;;3.20;97.30;;;;;;5052924;28;20461;-85
2021/12/27 12:53:11;;;;;;;16.77;6.80;;;3.20;97.30;;;;;;5053403;28;20433;-86
2021/12/27 12:55:40;;;;;;;14.67;5.97;;;3.20;97.30;;;;;;5053143;28;20448;-86
2021/12/27 12:58:40;;;;;;;13.37;6.33;;;3.20;97.30;;;;;;5053306;28;20827;-86
2021/12/27 13:01:09;;;;;;;17.77;6.60;;;3.20;97.30;;;;;;5030467;23;20508;-85